Time;durP1;ratioP1;P1;durP2;ratioP2;P2;SDS_P1;SDS_P2;PMS_P1;PMS_P2;Temp;Humidity;BMP_temperature;BMP_pressure;BME280_temperature;BME280_humidity;BME280_pressure;Samples;Min_cycle;Max_cycle;Signal;HPM_P1;HPM_P2
2021/07/29 00:00:41;;;;;;;8.63;3.40;;;15.80;99.90;;;;;;6137408;23;20088;-82
2021/07/29 00:03:07;;;;;;;11.88;3.35;;;15.80;99.90;;;;;;6131130;23;20040;-82
2021/07/29 00:05:35;;;;;;;6.90;2.92;;;15.80;99.90;;;;;;6129163;23;20037;-82
2021/07/29 00:08:01;;;;;;;7.03;3.30;;;15.80;99.90;;;;;;6163621;23;20398;-82
2021/07/29 00:10:28;;;;;;;5.35;3.20;;;15.80;99.90;;;;;;6164330;23;20032;-81
2021/07/29 00:12:53;;;;;;;7.18;3.17;;;15.70;99.90;;;;;;6137436;23;20161;-82
2021/07/29 00:15:20;;;;;;;8.00;3.95;;;15.70;99.90;;;;;;6127990;23;20034;-81
2021/07/29 00:20:13;;;;;;;8.88;3.58;;;15.60;99.90;;;;;;6153889;23;20025;-82
2021/07/29 00:22:40;;;;;;;8.07;3.33;;;15.50;99.90;;;;;;6103400;23;20061;-82
2021/07/29 00:25:11;;;;;;;13.50;3.78;;;15.50;99.90;;;;;;6138012;23;20053;-82
2021/07/29 00:27:38;;;;;;;6.88;3.70;;;15.40;99.90;;;;;;6103229;23;20013;-82
2021/07/29 00:30:06;;;;;;;6.70;3.60;;;15.30;99.90;;;;;;6153142;23;20024;-81
2021/07/29 00:32:33;;;;;;;6.32;3.80;;;15.30;99.90;;;;;;6127946;23;20406;-82
2021/07/29 00:34:59;;;;;;;7.45;4.00;;;15.20;99.90;;;;;;6128470;23;20013;-82
2021/07/29 00:37:24;;;;;;;9.25;4.22;;;15.20;99.90;;;;;;6128436;23;20086;-82
2021/07/29 00:39:51;;;;;;;6.47;4.00;;;15.20;99.90;;;;;;6137623;23;20092;-82
2021/07/29 00:42:16;;;;;;;8.75;4.07;;;15.10;99.90;;;;;;6136947;23;20465;-82
2021/07/29 00:44:42;;;;;;;11.02;4.13;;;15.10;99.90;;;;;;6153822;23;20048;-82
2021/07/29 00:47:08;;;;;;;9.23;3.92;;;15.10;99.90;;;;;;6161401;23;20358;-82
2021/07/29 00:49:35;;;;;;;8.40;4.20;;;15.10;99.90;;;;;;6163465;23;20010;-82
2021/07/29 00:52:02;;;;;;;8.95;4.00;;;15.10;99.90;;;;;;6127957;23;20597;-82
2021/07/29 00:54:29;;;;;;;8.93;4.22;;;15.10;99.90;;;;;;6163802;23;20014;-82
2021/07/29 00:57:01;;;;;;;10.20;4.40;;;15.10;99.90;;;;;;6127669;23;20006;-82
2021/07/29 00:59:27;;;;;;;14.55;4.53;;;15.10;99.90;;;;;;6127197;23;20018;-82
2021/07/29 01:01:52;;;;;;;16.08;5.22;;;15.20;99.90;;;;;;6162058;23;20754;-82
2021/07/29 01:04:18;;;;;;;10.73;4.55;;;15.20;99.90;;;;;;6158084;23;20065;-82
2021/07/29 01:06:45;;;;;;;9.40;4.85;;;15.20;99.90;;;;;;6153357;23;20033;-81
2021/07/29 01:09:11;;;;;;;14.50;5.00;;;15.10;99.90;;;;;;6154198;23;20043;-81
2021/07/29 01:11:40;;;;;;;8.32;5.18;;;15.00;99.90;;;;;;6103035;23;20013;-82
2021/07/29 01:14:07;;;;;;;11.30;4.80;;;15.00;99.90;;;;;;6163704;23;20014;-81
2021/07/29 01:16:33;;;;;;;8.23;4.63;;;14.90;99.90;;;;;;6152984;23;20093;-81
2021/07/29 01:19:00;;;;;;;16.02;4.70;;;14.90;99.90;;;;;;6138159;23;20021;-82
2021/07/29 01:21:27;;;;;;;8.63;4.53;;;14.90;99.90;;;;;;6127467;23;20063;-81
2021/07/29 01:23:53;;;;;;;11.73;4.10;;;14.90;99.90;;;;;;6127456;23;20013;-82
2021/07/29 01:26:19;;;;;;;10.45;4.78;;;14.90;99.90;;;;;;6163068;23;20028;-81
2021/07/29 01:28:45;;;;;;;10.18;4.50;;;14.90;99.90;;;;;;6127679;23;20040;-81
2021/07/29 01:31:11;;;;;;;12.75;4.78;;;14.80;99.90;;;;;;6137644;23;20013;-81
2021/07/29 01:33:38;;;;;;;12.18;4.18;;;14.80;99.90;;;;;;6128759;23;20379;-79
2021/07/29 01:36:04;;;;;;;13.20;3.33;;;14.70;99.90;;;;;;6127539;23;20018;-80
2021/07/29 01:38:30;;;;;;;7.78;3.20;;;14.60;99.90;;;;;;6163531;23;20024;-80
2021/07/29 01:40:57;;;;;;;8.68;2.78;;;14.50;99.90;;;;;;6128056;23;20426;-80
2021/07/29 01:43:24;;;;;;;8.88;2.65;;;14.40;99.90;;;;;;6102440;23;20013;-80
2021/07/29 01:45:49;;;;;;;11.57;2.65;;;14.30;99.90;;;;;;6152714;23;20014;-80
2021/07/29 01:48:15;;;;;;;11.23;2.45;;;14.20;99.90;;;;;;6127626;23;20404;-81
2021/07/29 01:50:43;;;;;;;5.65;2.30;;;14.20;99.90;;;;;;6103040;23;20017;-80
2021/07/29 01:53:09;;;;;;;11.18;2.55;;;14.10;99.90;;;;;;6127507;23;20120;-80
2021/07/29 01:55:39;;;;;;;6.97;2.00;;;14.10;99.90;;;;;;6102298;23;20694;-80
2021/07/29 01:58:04;;;;;;;5.07;1.83;;;14.10;99.90;;;;;;6151796;23;20019;-80
2021/07/29 02:00:30;;;;;;;6.47;2.30;;;13.90;99.90;;;;;;6136964;23;20033;-80
2021/07/29 02:02:56;;;;;;;7.50;2.42;;;14.00;99.90;;;;;;6127987;23;20009;-81
2021/07/29 02:05:22;;;;;;;6.82;2.22;;;14.00;99.90;;;;;;6102222;23;20419;-81
2021/07/29 02:07:48;;;;;;;7.72;2.53;;;13.90;99.90;;;;;;6153410;23;20009;-81
2021/07/29 02:10:14;;;;;;;3.28;2.20;;;13.90;99.90;;;;;;6151699;23;20036;-81
2021/07/29 02:12:40;;;;;;;6.13;2.67;;;13.90;99.90;;;;;;6127735;23;20469;-81
2021/07/29 02:15:07;;;;;;;6.63;2.67;;;13.90;99.90;;;;;;6153070;23;20110;-81
2021/07/29 02:17:32;;;;;;;8.85;3.17;;;14.00;99.90;;;;;;6102726;23;20341;-81
2021/07/29 02:19:59;;;;;;;8.30;3.00;;;14.00;99.90;;;;;;6163515;23;20009;-81
2021/07/29 02:22:24;;;;;;;8.93;3.67;;;14.00;99.90;;;;;;6127225;23;20037;-80
2021/07/29 02:24:50;;;;;;;10.35;4.03;;;14.10;99.90;;;;;;6153659;23;20433;-80
2021/07/29 02:27:16;;;;;;;10.75;4.15;;;14.10;99.90;;;;;;6151548;23;20097;-81
2021/07/29 02:29:42;;;;;;;20.63;4.22;;;14.20;99.90;;;;;;6126615;23;20017;-81
2021/07/29 02:32:08;;;;;;;11.40;4.18;;;14.20;99.90;;;;;;6102669;23;20009;-81
2021/07/29 02:34:34;;;;;;;7.57;3.70;;;14.30;99.90;;;;;;6127781;23;20096;-81
2021/07/29 02:36:59;;;;;;;12.75;3.55;;;14.30;99.90;;;;;;6138838;23;20041;-81
2021/07/29 02:39:27;;;;;;;9.27;2.97;;;14.30;99.90;;;;;;6128755;23;20077;-81
2021/07/29 02:41:54;;;;;;;7.18;2.50;;;14.30;99.90;;;;;;6128896;23;20421;-81
2021/07/29 02:44:20;;;;;;;6.03;1.90;;;14.10;99.90;;;;;;6165562;23;20025;-82
2021/07/29 02:46:45;;;;;;;4.75;1.92;;;14.10;99.90;;;;;;6137699;23;20021;-82
2021/07/29 02:49:11;;;;;;;4.90;1.50;;;14.10;99.90;;;;;;6155385;23;20071;-81
2021/07/29 02:51:37;;;;;;;3.50;1.60;;;13.90;99.90;;;;;;6154015;23;20326;-81
2021/07/29 02:54:03;;;;;;;2.92;1.50;;;13.80;99.90;;;;;;6128849;23;20080;-81
2021/07/29 02:56:28;;;;;;;3.72;1.40;;;13.60;99.90;;;;;;6128383;23;20036;-81
2021/07/29 02:58:54;;;;;;;2.78;1.48;;;13.60;99.90;;;;;;6138821;23;20013;-81
2021/07/29 03:01:20;;;;;;;5.95;1.60;;;13.50;99.90;;;;;;6127929;23;20071;-82
2021/07/29 03:03:46;;;;;;;3.00;1.30;;;13.40;99.90;;;;;;6155069;23;20017;-81
2021/07/29 03:06:12;;;;;;;3.63;1.60;;;13.30;99.90;;;;;;6155535;23;20036;-81
2021/07/29 03:08:38;;;;;;;3.22;1.30;;;13.30;99.90;;;;;;6104367;23;20018;-81
2021/07/29 03:11:04;;;;;;;2.58;1.23;;;13.20;99.90;;;;;;6144385;23;20140;-80
2021/07/29 03:13:29;;;;;;;3.05;1.30;;;13.20;99.90;;;;;;6130684;23;20132;-79
2021/07/29 03:15:55;;;;;;;2.58;1.23;;;13.10;99.90;;;;;;6165969;23;20029;-81
2021/07/29 03:18:25;;;;;;;3.15;1.50;;;13.10;99.90;;;;;;6156161;23;20025;-81
2021/07/29 03:20:51;;;;;;;5.03;1.40;;;13.10;99.90;;;;;;6155574;23;20040;-80
2021/07/29 03:23:18;;;;;;;6.45;1.20;;;13.10;99.90;;;;;;6152041;23;20338;-81
2021/07/29 03:25:50;;;;;;;3.90;1.45;;;13.00;99.90;;;;;;6150318;23;20623;-81
2021/07/29 03:28:16;;;;;;;4.97;1.70;;;13.00;99.90;;;;;;6138486;23;20068;-81
2021/07/29 03:30:42;;;;;;;1.85;1.30;;;13.00;99.90;;;;;;6128711;23;20010;-80
2021/07/29 03:33:10;;;;;;;4.25;1.50;;;12.90;99.90;;;;;;6132531;23;20017;-82
2021/07/29 03:35:41;;;;;;;6.03;1.40;;;12.90;99.90;;;;;;6164464;23;20300;-81
2021/07/29 03:38:08;;;;;;;3.35;1.42;;;12.80;99.90;;;;;;6128278;23;20021;-81
2021/07/29 03:40:35;;;;;;;7.22;1.30;;;12.90;99.90;;;;;;6128973;23;20108;-81
2021/07/29 03:43:02;;;;;;;3.75;1.60;;;12.80;99.90;;;;;;6128019;23;20395;-81
2021/07/29 03:45:29;;;;;;;4.40;1.42;;;12.80;99.90;;;;;;6163552;23;20047;-81
2021/07/29 03:47:55;;;;;;;9.70;1.48;;;12.70;99.90;;;;;;6154337;23;20015;-81
2021/07/29 03:50:21;;;;;;;5.88;1.92;;;12.70;99.90;;;;;;6138736;23;20092;-81
2021/07/29 03:52:47;;;;;;;5.82;1.70;;;12.70;99.90;;;;;;6127655;23;20045;-81
2021/07/29 03:55:13;;;;;;;5.75;1.67;;;12.70;99.90;;;;;;6137933;23;20013;-81
2021/07/29 03:57:39;;;;;;;3.97;1.42;;;12.70;99.90;;;;;;6127654;23;20461;-81
2021/07/29 04:00:05;;;;;;;3.08;1.40;;;12.70;99.90;;;;;;6127526;23;20017;-81
2021/07/29 04:02:34;;;;;;;4.65;1.70;;;12.70;99.90;;;;;;6153857;23;20080;-81
2021/07/29 04:05:01;;;;;;;7.35;1.38;;;12.70;99.90;;;;;;6127345;23;20017;-81
2021/07/29 04:07:27;;;;;;;4.22;1.40;;;12.70;99.90;;;;;;6126769;23;20076;-82
2021/07/29 04:09:53;;;;;;;4.70;1.52;;;12.70;99.90;;;;;;6103543;23;20067;-81
2021/07/29 04:12:20;;;;;;;3.97;1.80;;;12.70;99.90;;;;;;6125688;23;20726;-82
2021/07/29 04:14:46;;;;;;;5.50;1.70;;;12.70;99.90;;;;;;6126728;23;20448;-79
2021/07/29 04:17:12;;;;;;;5.57;1.73;;;12.80;99.90;;;;;;6126631;23;20444;-79
2021/07/29 04:19:38;;;;;;;6.55;1.80;;;12.70;99.90;;;;;;6162534;23;20099;-79
2021/07/29 04:22:05;;;;;;;6.75;1.70;;;12.80;99.90;;;;;;6162945;23;20037;-80
2021/07/29 04:24:33;;;;;;;6.93;2.00;;;12.80;99.90;;;;;;6162625;23;20089;-79
2021/07/29 04:27:00;;;;;;;7.65;1.70;;;12.80;99.90;;;;;;6126212;23;20024;-80
2021/07/29 04:29:39;;;;;;;3.92;1.70;;;12.80;99.90;;;;;;6162514;23;20009;-80
2021/07/29 04:32:06;;;;;;;9.13;2.08;;;12.80;99.90;;;;;;6134911;23;20013;-79
2021/07/29 04:34:38;;;;;;;6.07;2.10;;;12.90;99.90;;;;;;6137130;23;20139;-80
2021/07/29 04:37:04;;;;;;;5.63;2.20;;;12.90;99.90;;;;;;6136803;23;20014;-80
2021/07/29 04:39:41;;;;;;;6.38;2.17;;;12.90;99.90;;;;;;6128917;23;20009;-80
2021/07/29 04:42:08;;;;;;;8.48;2.10;;;12.90;99.90;;;;;;6125549;23;20100;-79
2021/07/29 04:44:35;;;;;;;6.57;2.10;;;12.90;99.90;;;;;;6126702;23;20025;-79
2021/07/29 04:47:01;;;;;;;5.72;2.03;;;13.00;99.90;;;;;;6136029;23;20453;-79
2021/07/29 04:49:31;;;;;;;9.48;2.47;;;13.00;99.90;;;;;;6137173;23;20037;-80
2021/07/29 04:51:56;;;;;;;7.60;2.20;;;13.10;99.90;;;;;;6126682;23;20096;-80
2021/07/29 04:54:22;;;;;;;6.72;2.33;;;13.20;99.90;;;;;;6128160;23;20009;-80
2021/07/29 04:56:49;;;;;;;9.05;2.30;;;13.30;99.90;;;;;;6101740;23;20020;-79
2021/07/29 04:59:19;;;;;;;5.15;2.30;;;13.40;99.90;;;;;;6151404;23;20017;-79
2021/07/29 05:01:45;;;;;;;5.38;2.25;;;13.30;99.90;;;;;;6154219;23;20014;-79
2021/07/29 05:04:12;;;;;;;9.75;2.90;;;13.30;99.90;;;;;;6153602;23;20047;-82
2021/07/29 05:06:38;;;;;;;9.57;2.78;;;13.30;99.90;;;;;;6154047;23;20059;-83
2021/07/29 05:09:04;;;;;;;8.32;2.70;;;13.40;99.90;;;;;;6103083;23;20017;-81
2021/07/29 05:11:40;;;;;;;7.88;2.80;;;13.40;99.90;;;;;;6164118;23;20010;-80
2021/07/29 05:14:06;;;;;;;10.55;2.97;;;13.50;99.90;;;;;;6127275;23;20080;-80
2021/07/29 05:16:44;;;;;;;8.80;3.03;;;13.50;99.90;;;;;;6139780;23;20009;-80
2021/07/29 05:19:10;;;;;;;11.80;2.70;;;13.60;99.90;;;;;;6128220;23;20013;-80
2021/07/29 05:21:36;;;;;;;14.48;3.17;;;13.70;99.90;;;;;;6136635;23;20047;-80
2021/07/29 05:24:07;;;;;;;11.50;3.25;;;13.70;99.90;;;;;;6153073;23;20086;-80
2021/07/29 05:26:32;;;;;;;15.10;3.20;;;13.80;99.90;;;;;;6128027;23;20021;-81
2021/07/29 05:28:58;;;;;;;9.27;2.80;;;13.80;99.90;;;;;;6153665;23;20025;-80
2021/07/29 05:31:24;;;;;;;12.02;2.78;;;13.90;99.90;;;;;;6102585;23;20426;-79
2021/07/29 05:33:50;;;;;;;12.10;3.13;;;13.90;99.90;;;;;;6101471;23;20009;-79
2021/07/29 05:36:15;;;;;;;14.98;2.92;;;14.00;99.90;;;;;;6126963;23;20017;-80
2021/07/29 05:38:41;;;;;;;10.77;3.13;;;14.00;99.90;;;;;;6154029;23;20021;-80
2021/07/29 05:41:09;;;;;;;16.25;3.15;;;14.10;99.90;;;;;;6163728;23;20445;-83
2021/07/29 05:43:40;;;;;;;10.30;3.10;;;14.10;99.90;;;;;;6154572;23;20014;-80
2021/07/29 05:46:07;;;;;;;10.20;3.05;;;14.20;99.90;;;;;;6126605;23;20025;-81
2021/07/29 05:48:33;;;;;;;14.80;2.88;;;14.30;99.90;;;;;;6126780;23;20021;-81
2021/07/29 05:51:01;;;;;;;10.85;3.60;;;14.30;99.90;;;;;;6164074;23;20079;-80
2021/07/29 05:53:26;;;;;;;18.33;2.92;;;14.30;99.90;;;;;;6127906;23;20014;-81
2021/07/29 05:55:54;;;;;;;14.23;3.38;;;14.40;99.90;;;;;;6154227;23;20083;-78
2021/07/29 05:58:19;;;;;;;16.73;2.97;;;14.50;99.90;;;;;;6127423;23;20044;-78
2021/07/29 06:00:45;;;;;;;13.43;2.90;;;14.50;99.90;;;;;;6163305;23;20010;-78
2021/07/29 06:03:11;;;;;;;14.52;3.17;;;14.50;99.90;;;;;;6153740;23;20517;-79
2021/07/29 06:05:36;;;;;;;13.60;3.50;;;14.60;99.90;;;;;;6153785;23;20022;-80
2021/07/29 06:08:03;;;;;;;12.18;3.53;;;14.60;99.90;;;;;;6127982;23;20284;-80
2021/07/29 06:10:29;;;;;;;13.60;3.28;;;14.70;99.90;;;;;;6128419;23;20426;-80
2021/07/29 06:12:55;;;;;;;11.00;2.83;;;14.70;99.90;;;;;;6129774;23;20028;-79
2021/07/29 06:15:21;;;;;;;17.73;3.50;;;14.80;99.90;;;;;;6163428;23;20017;-80
2021/07/29 06:17:54;;;;;;;12.55;3.13;;;14.80;99.90;;;;;;6128238;23;20166;-80
2021/07/29 06:20:20;;;;;;;12.05;3.10;;;14.80;99.90;;;;;;6128717;23;20450;-80
2021/07/29 06:22:45;;;;;;;11.95;3.10;;;14.90;99.90;;;;;;6129162;23;20048;-81
2021/07/29 06:25:13;;;;;;;12.13;3.38;;;15.00;99.90;;;;;;6139844;23;20071;-80
2021/07/29 06:27:38;;;;;;;14.23;3.50;;;15.00;99.90;;;;;;6104364;23;20353;-79
2021/07/29 06:30:05;;;;;;;12.70;3.05;;;15.10;99.90;;;;;;6139253;23;20009;-80
2021/07/29 06:32:31;;;;;;;7.80;2.80;;;15.10;99.90;;;;;;6127135;23;20092;-80
2021/07/29 06:34:57;;;;;;;14.35;3.40;;;15.10;99.90;;;;;;6127941;23;20037;-81
2021/07/29 06:37:23;;;;;;;11.27;3.08;;;15.20;99.90;;;;;;6165413;23;20013;-81
2021/07/29 06:39:48;;;;;;;12.30;2.90;;;15.20;99.90;;;;;;6129366;23;20021;-80
2021/07/29 06:42:14;;;;;;;11.30;3.15;;;15.20;99.90;;;;;;6128766;23;20021;-80
2021/07/29 06:44:41;;;;;;;12.98;2.88;;;15.30;99.90;;;;;;6129309;23;20450;-82
2021/07/29 06:47:21;;;;;;;9.65;2.90;;;15.30;99.90;;;;;;6164256;23;20442;-81
2021/07/29 06:49:50;;;;;;;9.50;3.20;;;15.40;99.90;;;;;;6127322;23;20323;-81
2021/07/29 06:52:16;;;;;;;16.63;3.42;;;15.40;99.90;;;;;;6128086;23;20052;-81
2021/07/29 06:54:42;;;;;;;9.95;2.63;;;15.50;99.90;;;;;;6138598;23;20025;-81
2021/07/29 06:57:08;;;;;;;17.55;3.35;;;15.60;99.90;;;;;;6165110;23;20040;-81
2021/07/29 06:59:35;;;;;;;6.82;2.67;;;15.70;99.90;;;;;;6138372;23;20067;-81
2021/07/29 07:02:01;;;;;;;16.27;3.08;;;15.80;99.90;;;;;;6154063;23;20426;-81
2021/07/29 07:04:27;;;;;;;12.23;3.13;;;15.90;99.90;;;;;;6098711;23;20094;-81
2021/07/29 07:06:53;;;;;;;16.85;2.88;;;15.90;99.90;;;;;;6125868;23;20018;-80
2021/07/29 07:09:19;;;;;;;13.57;2.90;;;16.00;99.90;;;;;;6122154;23;20662;-80
2021/07/29 07:11:44;;;;;;;17.40;3.08;;;16.10;99.90;;;;;;6124754;23;20084;-81
2021/07/29 07:14:10;;;;;;;12.68;3.28;;;16.10;99.90;;;;;;6134201;23;20044;-80
2021/07/29 07:16:37;;;;;;;16.77;3.15;;;16.20;99.90;;;;;;6123518;23;20054;-81
2021/07/29 07:19:04;;;;;;;9.63;2.72;;;16.40;99.90;;;;;;6122372;23;20025;-81
2021/07/29 07:21:29;;;;;;;12.20;3.10;;;16.40;99.90;;;;;;6125593;23;20006;-81
2021/07/29 07:23:55;;;;;;;13.98;3.35;;;16.50;99.90;;;;;;6124286;23;20084;-81
2021/07/29 07:26:23;;;;;;;13.32;3.45;;;16.70;99.90;;;;;;6125984;23;20407;-81
2021/07/29 07:28:50;;;;;;;19.15;4.22;;;16.90;99.90;;;;;;6135742;23;20041;-81
2021/07/29 07:31:17;;;;;;;15.52;3.22;;;16.90;99.90;;;;;;6123368;23;20021;-80
2021/07/29 07:34:04;;;;;;;14.32;2.80;;;17.00;99.90;;;;;;6123465;23;20112;-79
2021/07/29 07:36:29;;;;;;;13.25;3.13;;;17.10;99.90;;;;;;6123789;23;20020;-79
2021/07/29 07:38:55;;;;;;;18.15;3.60;;;17.00;99.90;;;;;;6123935;23;20021;-80
2021/07/29 07:41:22;;;;;;;18.05;3.05;;;17.10;99.90;;;;;;6133706;23;20045;-80
2021/07/29 07:43:48;;;;;;;8.52;2.70;;;17.10;99.90;;;;;;6123150;23;20423;-80
2021/07/29 07:46:14;;;;;;;13.73;3.10;;;17.10;99.90;;;;;;6134832;23;20022;-80
2021/07/29 07:48:40;;;;;;;10.07;2.75;;;17.00;99.90;;;;;;6121963;23;20104;-81
2021/07/29 07:51:06;;;;;;;11.10;3.17;;;17.00;99.90;;;;;;6121863;23;20051;-80
2021/07/29 07:53:32;;;;;;;15.27;2.75;;;17.00;99.90;;;;;;6133414;23;20018;-80
2021/07/29 07:56:02;;;;;;;21.13;3.35;;;17.00;99.90;;;;;;6134027;23;20089;-80
2021/07/29 07:58:28;;;;;;;9.93;3.17;;;17.00;99.90;;;;;;6134981;23;20010;-81
2021/07/29 08:00:54;;;;;;;10.18;3.22;;;17.00;99.90;;;;;;6122526;23;20010;-81
2021/07/29 08:03:19;;;;;;;12.15;2.75;;;17.10;99.90;;;;;;6123569;23;20021;-80
2021/07/29 08:05:45;;;;;;;17.67;3.20;;;17.30;99.90;;;;;;6149027;23;20021;-80
2021/07/29 08:08:11;;;;;;;12.30;2.97;;;17.50;99.90;;;;;;6154426;23;20017;-80
2021/07/29 08:10:38;;;;;;;13.73;2.95;;;17.60;99.90;;;;;;6164958;23;20047;-77
2021/07/29 08:13:08;;;;;;;13.02;3.38;;;17.70;99.90;;;;;;6164273;23;20438;-82
2021/07/29 08:15:37;;;;;;;13.88;3.42;;;17.60;99.90;;;;;;6104705;23;20036;-78
2021/07/29 08:18:03;;;;;;;9.25;2.75;;;17.70;99.90;;;;;;6152711;23;20017;-79
2021/07/29 08:20:29;;;;;;;12.05;3.05;;;17.80;99.90;;;;;;6127595;23;20033;-80
2021/07/29 08:22:55;;;;;;;15.57;3.22;;;17.90;99.90;;;;;;6163637;23;20009;-80
2021/07/29 08:25:22;;;;;;;13.68;3.03;;;18.00;99.90;;;;;;6126165;23;20027;-80
2021/07/29 08:27:48;;;;;;;9.60;2.92;;;18.10;99.90;;;;;;6127465;23;20029;-80
2021/07/29 08:30:16;;;;;;;9.07;3.05;;;18.20;99.90;;;;;;6152865;23;20028;-80
2021/07/29 08:32:44;;;;;;;14.63;3.15;;;18.10;99.90;;;;;;6161792;23;20418;-80
2021/07/29 08:35:11;;;;;;;11.88;3.75;;;17.90;99.90;;;;;;6137171;23;20063;-80
2021/07/29 08:37:49;;;;;;;12.55;2.90;;;17.80;99.90;;;;;;6157332;23;20014;-82
2021/07/29 08:40:22;;;;;;;18.17;3.22;;;17.70;99.90;;;;;;6103168;23;20016;-81
2021/07/29 08:42:51;;;;;;;8.25;2.92;;;17.70;99.90;;;;;;6163168;23;20152;-82
2021/07/29 08:45:17;;;;;;;10.60;2.70;;;17.90;99.90;;;;;;6126864;23;20013;-83
2021/07/29 08:47:44;;;;;;;10.70;2.80;;;18.00;99.90;;;;;;6127467;23;20029;-83
2021/07/29 08:50:16;;;;;;;8.75;2.63;;;17.90;99.90;;;;;;6152412;23;20014;-82
2021/07/29 08:52:42;;;;;;;17.02;3.20;;;17.80;99.90;;;;;;6163477;23;20013;-82
2021/07/29 08:55:08;;;;;;;10.10;2.63;;;17.80;99.90;;;;;;6127115;23;20032;-82
2021/07/29 08:57:37;;;;;;;12.20;2.80;;;17.80;99.90;;;;;;6163294;23;20433;-82
2021/07/29 09:00:08;;;;;;;10.18;2.80;;;18.00;99.90;;;;;;6139722;23;20018;-81
2021/07/29 09:06:16;;;;;;;9.10;2.80;;;18.60;99.90;;;;;;6166217;23;20036;-82
2021/07/29 09:08:52;;;;;;;10.38;3.22;;;18.40;99.90;;;;;;6128025;23;20101;-81
2021/07/29 09:11:37;;;;;;;11.20;3.53;;;18.20;99.90;;;;;;6103551;23;20171;-81
2021/07/29 09:14:11;;;;;;;18.27;3.67;;;18.20;99.90;;;;;;6154891;23;20009;-80
2021/07/29 09:16:58;;;;;;;9.85;2.90;;;18.20;99.90;;;;;;6127910;23;20152;-82
2021/07/29 09:19:35;;;;;;;12.80;3.22;;;18.00;99.90;;;;;;6127447;23;20071;-80
2021/07/29 09:22:12;;;;;;;8.55;2.95;;;17.90;99.90;;;;;;6127939;23;20009;-80
2021/07/29 09:24:56;;;;;;;10.77;3.03;;;17.90;99.90;;;;;;6151842;23;20013;-79
2021/07/29 09:27:26;;;;;;;11.60;3.00;;;17.50;99.90;;;;;;6127482;23;20299;-81
2021/07/29 09:29:51;;;;;;;10.13;2.95;;;17.40;99.90;;;;;;6127588;23;20048;-81
2021/07/29 09:32:19;;;;;;;8.05;3.15;;;17.20;99.90;;;;;;6127962;23;20013;-82
2021/07/29 09:34:48;;;;;;;10.13;2.72;;;17.30;99.90;;;;;;6128439;23;20020;-82
2021/07/29 09:37:16;;;;;;;9.32;3.33;;;17.50;99.90;;;;;;6127444;23;20020;-81
2021/07/29 09:39:43;;;;;;;12.52;4.22;;;17.50;99.90;;;;;;6163388;23;20017;-82
2021/07/29 09:42:18;;;;;;;9.10;2.70;;;17.40;99.90;;;;;;6127599;23;20014;-81
2021/07/29 09:44:46;;;;;;;17.70;3.15;;;17.40;99.90;;;;;;6104618;23;20017;-81
2021/07/29 09:47:12;;;;;;;13.35;3.30;;;17.60;99.90;;;;;;6156274;23;20092;-80
2021/07/29 09:49:39;;;;;;;13.80;3.22;;;17.80;99.90;;;;;;6156914;23;20009;-81
2021/07/29 09:52:06;;;;;;;10.23;3.20;;;18.00;99.90;;;;;;6129490;23;20027;-82
2021/07/29 09:54:35;;;;;;;12.32;2.65;;;18.20;99.90;;;;;;6138290;23;20018;-81
2021/07/29 09:57:01;;;;;;;9.20;2.63;;;18.60;99.90;;;;;;6164878;23;20010;-81
2021/07/29 09:59:27;;;;;;;10.07;2.70;;;18.80;99.90;;;;;;6165191;23;20076;-85
2021/07/29 10:01:54;;;;;;;10.75;2.60;;;18.80;99.90;;;;;;6128021;23;20022;-81
2021/07/29 10:04:29;;;;;;;8.13;2.33;;;18.80;99.90;;;;;;6128089;23;20014;-82
2021/07/29 10:06:59;;;;;;;12.52;2.70;;;19.10;99.90;;;;;;6155987;23;20338;-83
2021/07/29 10:09:27;;;;;;;6.40;1.80;;;19.10;99.90;;;;;;6155931;23;20062;-82
2021/07/29 10:11:58;;;;;;;5.00;1.92;;;19.00;99.90;;;;;;6104455;23;20442;-83
2021/07/29 10:14:49;;;;;;;10.25;2.03;;;19.00;99.90;;;;;;6155023;23;20302;-82
2021/07/29 10:17:15;;;;;;;12.27;1.92;;;19.30;99.90;;;;;;6128440;23;20017;-81
2021/07/29 10:20:14;;;;;;;6.90;1.73;;;19.40;99.90;;;;;;6153464;23;20319;-82
2021/07/29 10:22:40;;;;;;;8.23;1.83;;;19.60;99.90;;;;;;6127942;23;20017;-79
2021/07/29 10:25:06;;;;;;;7.97;1.85;;;19.90;99.90;;;;;;6164588;23;20072;-83
2021/07/29 10:27:32;;;;;;;11.57;2.35;;;20.00;99.90;;;;;;6128667;23;20033;-80
2021/07/29 10:30:20;;;;;;;7.65;1.80;;;20.00;99.90;;;;;;6128325;23;20028;-82
2021/07/29 10:32:48;;;;;;;14.15;1.70;;;20.00;99.90;;;;;;6105229;23;20365;-81
2021/07/29 10:35:29;;;;;;;4.45;1.50;;;19.70;99.90;;;;;;6128087;23;20083;-81
2021/07/29 10:37:55;;;;;;;17.55;1.95;;;19.50;99.90;;;;;;6165109;23;20052;-82
2021/07/29 10:40:47;;;;;;;7.55;1.83;;;19.20;99.90;;;;;;6137719;23;20009;-80
2021/07/29 10:43:25;;;;;;;8.85;1.77;;;19.10;99.90;;;;;;6127469;23;20014;-82
2021/07/29 10:45:53;;;;;;;6.20;1.80;;;19.00;99.90;;;;;;6152384;23;20021;-82
2021/07/29 10:48:39;;;;;;;7.30;1.70;;;18.90;99.90;;;;;;6103013;23;20116;-81
2021/07/29 10:51:25;;;;;;;4.47;1.70;;;18.90;99.90;;;;;;6148129;23;20025;-82
2021/07/29 10:53:57;;;;;;;9.30;1.90;;;18.80;99.90;;;;;;6128874;23;20104;-82
2021/07/29 10:56:24;;;;;;;10.25;2.35;;;19.00;99.90;;;;;;6127472;23;20017;-83
2021/07/29 10:58:53;;;;;;;7.15;2.75;;;19.20;99.90;;;;;;6127971;23;20041;-82
2021/07/29 11:01:20;;;;;;;7.07;1.70;;;19.30;99.90;;;;;;6103337;23;20569;-82
2021/07/29 11:03:51;;;;;;;11.32;2.28;;;19.30;99.90;;;;;;6127814;23;20025;-83
2021/07/29 11:06:45;;;;;;;7.68;2.20;;;19.40;99.90;;;;;;6121725;23;20092;-80
2021/07/29 11:09:20;;;;;;;6.88;2.00;;;19.80;99.90;;;;;;6123481;23;20065;-80
2021/07/29 11:11:49;;;;;;;4.47;1.60;;;19.70;99.90;;;;;;6122206;23;20025;-80
2021/07/29 11:14:23;;;;;;;12.02;1.90;;;19.60;99.90;;;;;;6148065;23;20010;-80
2021/07/29 11:16:50;;;;;;;5.20;2.22;;;19.60;99.90;;;;;;6122253;23;20096;-79
2021/07/29 11:19:16;;;;;;;4.60;1.77;;;19.40;99.90;;;;;;6121908;23;20014;-79
2021/07/29 11:21:42;;;;;;;9.98;1.85;;;19.60;99.90;;;;;;6135501;23;20453;-79
2021/07/29 11:24:24;;;;;;;6.55;1.90;;;19.50;99.90;;;;;;6135604;23;20014;-79
2021/07/29 11:26:50;;;;;;;5.90;2.00;;;19.60;99.90;;;;;;6124041;23;20102;-79
2021/07/29 11:29:16;;;;;;;9.73;2.10;;;19.90;99.90;;;;;;6135323;23;20375;-79
2021/07/29 11:31:43;;;;;;;8.70;1.83;;;20.10;99.90;;;;;;6123486;23;20021;-80
2021/07/29 11:34:10;;;;;;;8.27;2.30;;;20.40;99.90;;;;;;6122751;23;20065;-80
2021/07/29 11:36:36;;;;;;;7.40;2.05;;;20.10;99.90;;;;;;6133801;23;20046;-80
2021/07/29 11:39:10;;;;;;;7.85;2.50;;;20.10;99.90;;;;;;6148353;23;20084;-80
2021/07/29 11:41:56;;;;;;;5.50;2.38;;;20.40;99.90;;;;;;6123030;23;20357;-79
2021/07/29 11:44:23;;;;;;;7.93;1.90;;;20.90;99.90;;;;;;6122428;23;20022;-80
2021/07/29 11:46:58;;;;;;;8.55;2.10;;;21.60;99.90;;;;;;6133426;23;20014;-81
2021/07/29 11:49:24;;;;;;;5.50;2.50;;;21.70;99.90;;;;;;6127828;23;20014;-80
2021/07/29 11:52:10;;;;;;;4.82;1.88;;;21.90;99.90;;;;;;6134720;23;20085;-80
2021/07/29 11:54:37;;;;;;;4.88;1.80;;;21.80;99.90;;;;;;6123328;23;20026;-81
2021/07/29 11:57:04;;;;;;;8.38;1.83;;;21.60;99.90;;;;;;6123520;23;20006;-83
2021/07/29 11:59:38;;;;;;;7.20;2.10;;;21.40;99.90;;;;;;6132571;23;20022;-81
2021/07/29 12:02:05;;;;;;;8.98;1.90;;;21.00;99.90;;;;;;6134716;23;20524;-80
2021/07/29 12:04:43;;;;;;;6.63;2.10;;;20.80;99.90;;;;;;6123006;23;20040;-81
2021/07/29 12:07:11;;;;;;;8.93;2.05;;;20.60;99.90;;;;;;6134542;23;20093;-81
2021/07/29 12:09:43;;;;;;;7.75;2.30;;;20.70;99.90;;;;;;6125236;23;20374;-81
2021/07/29 12:12:11;;;;;;;6.72;2.35;;;21.30;99.90;;;;;;6134972;23;20010;-81
2021/07/29 12:14:37;;;;;;;9.20;2.00;;;21.30;99.90;;;;;;6097669;23;20118;-81
2021/07/29 12:17:04;;;;;;;10.23;2.50;;;21.10;99.90;;;;;;6108100;23;20013;-81
2021/07/29 12:19:30;;;;;;;6.30;2.10;;;21.30;99.90;;;;;;6073521;23;20131;-81
2021/07/29 12:21:56;;;;;;;9.30;2.47;;;21.30;99.90;;;;;;6135492;23;20111;-81
2021/07/29 12:24:22;;;;;;;10.18;2.47;;;21.60;99.90;;;;;;6099048;23;20018;-82
2021/07/29 12:27:08;;;;;;;6.45;1.83;;;22.10;99.90;;;;;;6074517;23;20014;-83
2021/07/29 12:29:38;;;;;;;10.45;2.10;;;22.30;99.90;;;;;;6098435;23;20040;-80
2021/07/29 12:32:04;;;;;;;7.50;2.17;;;22.20;99.90;;;;;;6124620;23;20085;-83
2021/07/29 12:34:34;;;;;;;6.97;2.05;;;22.50;99.90;;;;;;6097392;23;20085;-83
2021/07/29 12:37:00;;;;;;;9.43;2.25;;;22.40;99.90;;;;;;6110559;23;20252;-79
2021/07/29 12:39:33;;;;;;;5.50;1.90;;;22.60;99.90;;;;;;6125833;23;20084;-80
2021/07/29 12:41:59;;;;;;;4.33;2.10;;;22.40;99.90;;;;;;6109651;23;20304;-80
2021/07/29 12:44:25;;;;;;;7.82;2.22;;;22.60;99.90;;;;;;6126031;23;20010;-79
2021/07/29 12:47:10;;;;;;;7.03;2.30;;;22.60;99.90;;;;;;6100073;23;20497;-80
2021/07/29 12:49:58;;;;;;;12.52;2.42;;;22.20;99.90;;;;;;6135509;23;20334;-80
2021/07/29 12:52:25;;;;;;;8.35;2.03;;;22.00;99.90;;;;;;6125292;23;20014;-79
2021/07/29 12:55:06;;;;;;;10.07;2.17;;;22.00;99.90;;;;;;6124574;23;20022;-80